Tiempo atmosférico en la estación meteorológica de Bicorp, València/Valencia (299 m.)



Fecha
DESCASC
Temp. máxima en grados centígrados (hora)
DESCASC
Temp. mínima en grados centígrados (hora)
DESCASC
Temp. media en grados centígrados
DESCASC
Racha de viento máxima en m/sg (hora)
DESCASC
Velocidad máxima media en intervalos de 10 minutos(hora)
DESCASC
Precipitaciones diarias en mm
DESCASC
Precipitaciones de 00:00 a 06:00 en mm
DESCASC
Precipitaciones de 06:00 a 12:00 en mm
DESCASC
Precipitaciones de 12:00 a 18:00 en mm
DESCASC
Precipitaciones de 18:00 a 24:00 en mm
DESCASC
23-05-2018 28.2 (15:50) 12.3 (06:40) 20.3 7.22 (16:10) 3.61 (16:10) 0 0 0 0 0
22-05-2018 28.2 (14:50) 11.1 (06:40) 19.7 8.06 (16:40) 5 (16:20) 2.4 0 0 2.4 0
21-05-2018 26.5 (15:40) 10 (06:10) 18.3 9.17 (16:10) 5 (16:10) 0 0 0 0 0
20-05-2018 25 (15:10) 9.3 (00:00) 17.2 8.61 (16:20) 4.72 (18:40) 0 0 0 0 0
19-05-2018 24.6 (16:50) 9.5 (06:50) 17.1 8.33 (12:50) 4.17 (13:00) 0 0 0 0 0
18-05-2018 25.5 (14:20) 9.9 (00:00) 17.7 9.72 (15:40) 5.56 (15:40) 0 0 0 0 0
17-05-2018 24.8 (15:40) 9.2 (00:00) 17 8.61 (14:50) 4.72 (18:30) 0 0 0 0 0
16-05-2018 24.7 (15:30) 8.9 (00:00) 16.8 8.89 (16:20) 5.28 (16:20) 0 0 0 0 0
15-05-2018 24.6 (16:00) 8.7 (00:00) 16.7 7.5 (17:30) 3.89 (17:30) 0 0 0 0 0
14-05-2018 24.3 (18:00) 8.8 (00:00) 16.5 8.61 (13:20) 3.61 (18:30) 0 0 0 0 0
13-05-2018 23.2 (16:20) 9.3 (00:00) 16.3 10.83 (17:00) 4.72 (19:40) 0 0 0 0 0
12-05-2018 28 (16:40) 14 (00:00) 21 12.5 (19:30) 5 (16:10) 0 0 0 0 0
11-05-2018 27.4 (17:20) 10.1 (06:20) 18.8 6.94 (13:50) 2.78 (19:00) 0 0 0 0 0
10-05-2018 24 (15:50) 13.3 (00:00) 18.7 7.22 (15:20) 4.17 (18:10) 2.6 1.6 0 0 1
09-05-2018 27.4 (14:50) 11.9 (00:00) 19.6 9.44 (16:00) 3.61 (16:10) 0.4 0 0 0.4 0
08-05-2018 26.7 (12:40) 13.3 (00:00) 20 9.17 (16:20) 5 (16:20) 4.6 0 0 4.6 0
07-05-2018 25.5 (16:10) 10.2 (00:00) 17.8 7.22 (18:00) 4.72 (18:00) 0 0 0 0 0
06-05-2018 24.6 (15:50) 10.2 (07:20) 17.4 9.72 (14:10) 4.72 (18:50) 0 0 0 0 0
05-05-2018 26 (14:30) 11.6 (00:00) 18.8 9.44 (17:20) 5.56 (17:20) 0 0 0 0 0
04-05-2018 22.6 (16:00) 8.5 (00:00) 15.6 6.39 (16:40) 3.61 (17:00) 0 0 0 0 0
03-05-2018 25 (16:10) 12 (00:00) 18.5 9.44 (13:30) 5 (17:00) 0 0 0 0 0
02-05-2018 22.5 (16:00) 4.8 (00:00) 13.7 13.61 (11:40) 5.28 (13:40) 0 0 0 0 0
01-05-2018 19.1 (16:30) 7.5 (07:00) 13.3 7.5 (17:40) 3.61 (17:40) 0 0 0 0 0
30-04-2018 18.8 (16:30) 6.6 (00:00) 12.7 10.28 (00:40) 4.72 (13:00) 0 0 0 0 0
29-04-2018 18.2 (16:30) 10.9 (00:00) 14.6 20.28 (15:00) 10.56 (15:20) 0 0 0 0 0
28-04-2018 24.2 (14:10) 10.8 (00:00) 17.5 7.78 (18:30) 4.17 (18:20) 20.4 0 0 0 20.4
27-04-2018 31 (15:50) 11.3 (00:00) 21.2 11.11 (15:00) 4.72 (15:40) 5 0 0 3.2 1.8
26-04-2018 23.1 (17:50) 12.1 (00:00) 17.6 7.5 (14:40) 4.17 (13:20) 0 0 0 0 0
25-04-2018 22.3 (14:40) 11.2 (00:00) 16.7 7.78 (12:20) 4.17 (12:20) 0 0 0 0 0

Gráficas

Temp. máximas Temp. mínimas Temp. medias Precipitaciones Rachas de viento máximas Velocidades máximas media en intervalos de 10 minutos

Datos horarios

Fecha y hora oficial Temperatura (ºC) Velocidad del viento (km/h) Dirección del viento Racha (km/h) Dirección de racha Precipitación (mm) Presión (hPa) Tendencia (hPa) Humedad (%)
2018-05-24 23:00:00 17.7 8 Nordeste 18 Este 0 -- -- 79
2018-05-24 22:00:00 18.1 8 Este 18 Nordeste 0 -- -- 78
2018-05-24 21:00:00 18.7 9 Nordeste 20 Nordeste 0 -- -- 74
2018-05-24 20:00:00 20 13 Este 24 Nordeste 0 -- -- 68
2018-05-24 19:00:00 21.4 14 Nordeste 25 Nordeste 0 -- -- 61
2018-05-24 18:00:00 22.7 14 Nordeste 29 Nordeste 0 -- -- 52
2018-05-24 17:00:00 24 15 Nordeste 28 Nordeste 0 -- -- 44
2018-05-24 16:00:00 24.3 14 Nordeste 27 Nordeste 0 -- -- 43
2018-05-24 15:00:00 24 13 Nordeste 26 Nordeste 0 -- -- 44
2018-05-24 14:00:00 23.7 12 Este 23 Este 0 -- -- 47
2018-05-24 13:00:00 22.4 15 Nordeste 24 Nordeste 0 -- -- 53
2018-05-24 12:00:00 21.1 8 Este 15 Sudeste 0 -- -- 65
2018-05-24 11:00:00 19.4 4 Sudeste 11 Sudeste 0 -- -- 70
2018-05-24 10:00:00 18.6 4 Sudeste 9 Este 0 -- -- 74
2018-05-24 09:00:00 18.6 4 Nordeste 11 Este 0 -- -- 75
2018-05-24 08:00:00 14.7 0 Calma 4 Oeste 0 -- -- 88
2018-05-24 07:00:00 14.1 0 Calma 5 Noroeste 0 -- -- 86
2018-05-24 06:00:00 15.5 0 Calma 6 Nordeste 0 -- -- 82
2018-05-24 05:00:00 15.6 0 Calma 7 Sudoeste 0 -- -- 82
2018-05-24 04:00:00 15 2 Oeste 8 Sudoeste 0 -- -- 83
2018-05-24 03:00:00 14.9 5 Sudoeste 9 Oeste 0 -- -- 81
2018-05-24 02:00:00 16 6 Oeste 9 Oeste 0 -- -- 77
2018-05-24 01:00:00 16.6 0 Calma 4 Sudoeste 0 -- -- 74
2018-05-24 00:00:00 17.6 0 Calma 4 Nordeste 0 -- -- 69
2018-05-23 23:00:00 19 4 Norte 9 Sudeste 0 -- -- 65
2018-05-23 22:00:00 20.4 5 Este 11 Nordeste 0 -- -- 61
2018-05-23 21:00:00 22.2 4 Nordeste 18 Nordeste 0 -- -- 54
2018-05-23 20:00:00 23.7 7 Nordeste 14 Nordeste 0 -- -- 49
2018-05-23 19:00:00 24.8 7 Nordeste 17 Nordeste 0 -- -- 48
2018-05-23 18:00:00 25.7 10 Nordeste 20 Nordeste 0 -- -- 46
2018-05-23 17:00:00 27.5 11 Este 26 Nordeste 0 -- -- 44
2018-05-23 16:00:00 28.2 12 Este 25 Este 0 -- -- 42
2018-05-23 15:00:00 27.6 10 Este 22 Este 0 -- -- 41
2018-05-23 14:00:00 26.9 9 Este 23 Este 0 -- -- 42
2018-05-23 13:00:00 25.8 10 Este 18 Este 0 -- -- 43
2018-05-23 12:00:00 24.4 6 Este 18 Este 0 -- -- 52
2018-05-23 11:00:00 23 4 Este 10 Este 0 -- -- 57
2018-05-23 10:00:00 20.9 5 Este 10 Nordeste 0 -- -- 61
2018-05-23 09:00:00 18.4 2 Sudeste 7 Sur 0 -- -- 70
2018-05-23 08:00:00 14.3 3 Sudoeste 8 Sudoeste 0 -- -- 82
2018-05-23 07:00:00 12.4 4 Sudoeste 9 Sudoeste 0 -- -- 87
2018-05-23 06:00:00 12.5 5 Sudoeste 9 Sudoeste 0 -- -- 87
2018-05-23 05:00:00 13.1 3 Sudoeste 9 Sudoeste 0 -- -- 85
2018-05-23 04:00:00 13.5 3 Oeste 8 Sudoeste 0 -- -- 85
2018-05-23 03:00:00 14 2 Sudoeste 7 Oeste 0 -- -- 84
2018-05-23 02:00:00 14.8 0 Calma 5 Oeste 0 -- -- 83
2018-05-23 01:00:00 15.2 4 Sudoeste 6 Oeste 0 -- -- 82
2018-05-23 00:00:00 15.2 3 Sudoeste 9 Oeste 0 -- -- 79
2018-05-22 23:00:00 16.2 6 Oeste 10 Oeste 0 -- -- 75
2018-05-22 22:00:00 16.9 3 Sudoeste 6 Oeste 0 -- -- 78
2018-05-22 21:00:00 19.4 0 Calma 8 Este 0 -- -- 68
2018-05-22 20:00:00 20.8 6 Este 14 Este 0 -- -- 59
2018-05-22 19:00:00 21.3 8 Este 15 Este 0 -- -- 58
2018-05-22 18:00:00 21 4 Sudeste 11 Este 0.4 -- -- 66
2018-05-22 17:00:00 19.1 8 Nordeste 29 Nordeste 1.6 -- -- 79
2018-05-22 16:00:00 23.7 13 Este 25 Este 0.4 -- -- 54
2018-05-22 15:00:00 27.1 10 Nordeste 27 Este 0 -- -- 34
2018-05-22 14:00:00 27 5 Sur 16 Sudeste 0 -- -- 33
2018-05-22 13:00:00 27.1 6 Norte 16 Norte 0 -- -- 33
2018-05-22 12:00:00 26.1 6 Este 20 Sudoeste 0 -- -- 37
2018-05-22 11:00:00 23.9 12 Sudoeste 24 Sudoeste 0 -- -- 43
2018-05-22 10:00:00 21.8 10 Sur 17 Sudoeste 0 -- -- 51
2018-05-22 09:00:00 19.1 2 Nordeste 5 Nordeste 0 -- -- 61
2018-05-22 08:00:00 14.2 0 Calma 4 Sudoeste 0 -- -- 79
2018-05-22 07:00:00 11.1 0 Calma 5 Noroeste 0 -- -- 86
2018-05-22 06:00:00 11.6 3 Oeste 6 Oeste 0 -- -- 85
2018-05-22 05:00:00 11.7 2 Oeste 5 Sudoeste 0 -- -- 82
2018-05-22 04:00:00 12.6 0 Calma 5 Norte 0 -- -- 77
2018-05-22 03:00:00 13.4 2 Oeste 8 Sudoeste 0 -- -- 74
2018-05-22 02:00:00 14.4 8 Oeste 12 Sudoeste 0 -- -- 70
2018-05-22 01:00:00 14.9 6 Sudoeste 13 Oeste 0 -- -- 69
2018-05-22 00:00:00 15 0 Calma 11 Oeste 0 -- -- 69
2018-05-21 23:00:00 16.9 9 Oeste 13 Oeste 0 -- -- 64
2018-05-21 22:00:00 17.4 3 Sudoeste 7 Sudoeste 0 -- -- 64
2018-05-21 21:00:00 18.9 0 Calma 4 Este 0 -- -- 60
2018-05-21 20:00:00 19.9 0 Calma 17 Este 0 -- -- 57
2018-05-21 19:00:00 20.9 10 Este 22 Nordeste 0 -- -- 52
2018-05-21 18:00:00 22.4 15 Nordeste 25 Este 0 -- -- 50
2018-05-21 17:00:00 22.5 14 Nordeste 33 Nordeste 0 -- -- 46
2018-05-21 16:00:00 26.3 12 Este 27 Este 0 -- -- 37
2018-05-21 15:00:00 26 10 Sudeste 25 Sur 0 -- -- 35
2018-05-21 14:00:00 25.8 10 Este 22 Este 0 -- -- 35
2018-05-21 13:00:00 25.1 4 Sudeste 19 Este 0 -- -- 37
2018-05-21 12:00:00 23.9 10 Este 19 Nordeste 0 -- -- 42
2018-05-21 11:00:00 22.5 7 Este 15 Este 0 -- -- 45
2018-05-21 10:00:00 21 4 Sudeste 8 Nordeste 0 -- -- 45
2018-05-21 09:00:00 18.1 3 Este 6 Nordeste 0 -- -- 62
2018-05-21 08:00:00 13.8 0 Calma 4 Sudoeste 0 -- -- 76
2018-05-21 07:00:00 10 0 Calma 3 Sudoeste 0 -- -- 88
2018-05-21 06:00:00 10.1 0 Calma 0 Calma 0 -- -- 87
2018-05-21 05:00:00 10.9 0 Calma 6 Sudoeste 0 -- -- 84
2018-05-21 04:00:00 11.4 3 Sudoeste 8 Oeste 0 -- -- 81
2018-05-21 03:00:00 12 4 Sudoeste 8 Oeste 0 -- -- 80
2018-05-21 02:00:00 13 5 Oeste 8 Oeste 0 -- -- 79
2018-05-21 01:00:00 13.8 5 Oeste 9 Oeste 0 -- -- 78
2018-05-21 00:00:00 14.4 7 Oeste 10 Sudoeste 0 -- -- 78
2018-05-20 23:00:00 15.3 0 Calma 5 Norte 0 -- -- 74
2018-05-20 22:00:00 16.9 3 Norte 11 Nordeste 0 -- -- 69
2018-05-20 21:00:00 18.7 8 Nordeste 17 Nordeste 0 -- -- 63
2018-05-20 20:00:00 20.4 12 Nordeste 27 Nordeste 0 -- -- 56
2018-05-20 19:00:00 22.4 14 Nordeste 27 Nordeste 0 -- -- 49
2018-05-20 18:00:00 24 13 Este 29 Este 0 -- -- 36
2018-05-20 17:00:00 24.7 15 Este 31 Nordeste 0 -- -- 31
2018-05-20 16:00:00 24.7 10 Nordeste 26 Este 0 -- -- 31
2018-05-20 15:00:00 24.5 12 Este 28 Nordeste 0 -- -- 32
2018-05-20 14:00:00 24.4 11 Este 24 Nordeste 0 -- -- 32
2018-05-20 13:00:00 23.8 10 Nordeste 26 Este 0 -- -- 34
2018-05-20 12:00:00 23.8 11 Este 22 Este 0 -- -- 36
2018-05-20 11:00:00 22.7 8 Este 17 Este 0 -- -- 43
2018-05-20 10:00:00 20.7 6 Sudeste 10 Sudeste 0 -- -- 44
2018-05-20 09:00:00 17.6 2 Sur 5 Este 0 -- -- 54
2018-05-20 08:00:00 12.7 0 Calma 5 Noroeste 0 -- -- 65
2018-05-20 07:00:00 9.3 0 Calma 6 Oeste 0 -- -- 75
2018-05-20 06:00:00 9.9 4 Oeste 8 Sudoeste 0 -- -- 72
2018-05-20 05:00:00 10.2 4 Sudoeste 9 Sudoeste 0 -- -- 71
2018-05-20 04:00:00 10.8 3 Sudoeste 10 Sudoeste 0 -- -- 70
2018-05-20 03:00:00 11.3 3 Sudoeste 7 Sudoeste 0 -- -- 68
2018-05-20 02:00:00 11.5 3 Sudoeste 8 Sudoeste 0 -- -- 68
2018-05-20 01:00:00 12.4 3 Oeste 9 Sudoeste 0 -- -- 66
2018-05-20 00:00:00 13.5 5 Oeste 9 Sudoeste 0 -- -- 64
2018-05-19 23:00:00 14.5 2 Sudoeste 7 Oeste 0 -- -- 61
2018-05-19 22:00:00 16.7 4 Norte 9 Nordeste 0 -- -- 55
2018-05-19 21:00:00 18.9 6 Nordeste 16 Este 0 -- -- 47
2018-05-19 20:00:00 21.1 9 Nordeste 23 Nordeste 0 -- -- 38
2018-05-19 19:00:00 23 14 Nordeste 22 Este 0 -- -- 37
2018-05-19 18:00:00 23.6 9 Nordeste 27 Nordeste 0 -- -- 33
2018-05-19 17:00:00 24.1 9 Este 27 Nordeste 0 -- -- 35
2018-05-19 16:00:00 24.5 10 Este 29 Este 0 -- -- 37
2018-05-19 15:00:00 23.6 14 Este 27 Nordeste 0 -- -- 40
2018-05-19 14:00:00 23.2 13 Nordeste 26 Nordeste 0 -- -- 40
2018-05-19 13:00:00 23.2 15 Este 30 Nordeste 0 -- -- 42
2018-05-19 12:00:00 21.7 9 Este 21 Sudeste 0 -- -- 48
2018-05-19 11:00:00 21.5 7 Nordeste 19 Nordeste 0 -- -- 50
2018-05-19 10:00:00 20.6 4 Este 10 Este 0 -- -- 53
2018-05-19 09:00:00 16.8 3 Este 11 Sudoeste 0 -- -- 64
2018-05-19 08:00:00 12.8 4 Sudoeste 11 Sudoeste 0 -- -- 78
2018-05-19 07:00:00 9.6 4 Sudoeste 6 Sudoeste 0 -- -- 88
2018-05-19 06:00:00 9.9 2 Oeste 3 Oeste 0 -- -- 87
2018-05-19 05:00:00 10.4 0 Calma 5 Sudoeste 0 -- -- 86
2018-05-19 04:00:00 11.1 4 Sudoeste 7 Sudoeste 0 -- -- 83
2018-05-19 03:00:00 11.5 3 Sudoeste 10 Oeste 0 -- -- 81
2018-05-19 02:00:00 12.1 6 Sudoeste 8 Sudoeste 0 -- -- 80
2018-05-19 01:00:00 12.9 0 Calma 10 Oeste 0 -- -- 76
2018-05-19 00:00:00 13.6 7 Sudoeste 10 Oeste 0 -- -- 74
2018-05-18 23:00:00 14.3 0 Calma 3 Sudoeste 0 -- -- 71
2018-05-18 22:00:00 16.6 0 Calma 9 Nordeste 0 -- -- 63
2018-05-18 21:00:00 18.1 6 Nordeste 14 Nordeste 0 -- -- 59
2018-05-18 20:00:00 19.4 10 Nordeste 24 Nordeste 0 -- -- 54
2018-05-18 19:00:00 21 11 Este 28 Este 0 -- -- 51
2018-05-18 18:00:00 21.9 19 Nordeste 30 Nordeste 0 -- -- 48
2018-05-18 17:00:00 23 17 Nordeste 32 Nordeste 0 -- -- 46
2018-05-18 16:00:00 23.8 18 Nordeste 35 Este 0 -- -- 42
2018-05-18 15:00:00 24.9 14 Este 24 Este 0 -- -- 38
2018-05-18 14:00:00 25 11 Este 24 Nordeste 0 -- -- 36
2018-05-18 13:00:00 24.4 10 Sudeste 27 Este 0 -- -- 37
2018-05-18 12:00:00 23.5 6 Sudeste 15 Este 0 -- -- 39
2018-05-18 11:00:00 21.8 6 Sudeste 12 Norte 0 -- -- 43
2018-05-18 10:00:00 19.3 4 Nordeste 7 Nordeste 0 -- -- 46
2018-05-18 09:00:00 16.8 3 Este 10 Sur 0 -- -- 61
2018-05-18 08:00:00 12.2 3 Sudoeste 6 Sudoeste 0 -- -- 76
2018-05-18 07:00:00 10 3 Oeste 6 Sur 0 -- -- 80
2018-05-18 06:00:00 10.3 3 Sudoeste 7 Sudoeste 0 -- -- 79
2018-05-18 05:00:00 10.9 4 Sudoeste 10 Sudoeste 0 -- -- 76
2018-05-18 04:00:00 11.4 7 Sudoeste 13 Sudoeste 0 -- -- 75
2018-05-18 03:00:00 11.5 5 Sudoeste 8 Sudoeste 0 -- -- 75
2018-05-18 02:00:00 12.2 2 Oeste 8 Oeste 0 -- -- 73
2018-05-18 01:00:00 12.9 5 Sudoeste 9 Oeste 0 -- -- 72
2018-05-18 00:00:00 14 5 Oeste 10 Oeste 0 -- -- 68
2018-05-17 23:00:00 15 4 Sudoeste 9 Oeste 0 -- -- 65
2018-05-17 22:00:00 17 2 Sudoeste 5 Sur 0 -- -- 59
2018-05-17 21:00:00 18.9 3 Nordeste 18 Nordeste 0 -- -- 51
2018-05-17 20:00:00 20.8 12 Nordeste 26 Nordeste 0 -- -- 46
2018-05-17 19:00:00 22.7 13 Este 28 Este 0 -- -- 39
2018-05-17 18:00:00 23.9 14 Este 27 Este 0 -- -- 38
2018-05-17 17:00:00 24.4 15 Este 27 Este 0 -- -- 38
2018-05-17 16:00:00 24.6 16 Este 28 Nordeste 0 -- -- 37
2018-05-17 15:00:00 24.5 14 Este 31 Este 0 -- -- 38
2018-05-17 14:00:00 23.9 11 Nordeste 22 Este 0 -- -- 39
2018-05-17 13:00:00 23.6 10 Sudeste 24 Este 0 -- -- 39
2018-05-17 12:00:00 22.2 9 Nordeste 21 Este 0 -- -- 41
2018-05-17 11:00:00 21.9 6 Este 14 Este 0 -- -- 42
2018-05-17 10:00:00 19.9 4 Este 7 Este 0 -- -- 45
2018-05-17 09:00:00 16.9 4 Este 9 Sudoeste 0 -- -- 53
2018-05-17 08:00:00 12 6 Sudoeste 13 Sudoeste 0 -- -- 66
2018-05-17 07:00:00 9.5 7 Sudoeste 14 Sudoeste 0 -- -- 73
2018-05-17 06:00:00 9.4 2 Sudoeste 10 Sudoeste 0 -- -- 72
2018-05-17 05:00:00 9.5 3 Sudoeste 9 Oeste 0 -- -- 73
2018-05-17 04:00:00 10.1 5 Oeste 8 Oeste 0 -- -- 69
2018-05-17 03:00:00 10.5 3 Sudoeste 6 Sudoeste 0 -- -- 67
2018-05-17 02:00:00 11.1 4 Sudoeste 8 Sudoeste 0 -- -- 64
2018-05-17 01:00:00 12 5 Oeste 10 Sudoeste 0 -- -- 61
2018-05-17 00:00:00 12.7 7 Sudoeste 10 Oeste 0 -- -- 59
2018-05-16 23:00:00 13.5 4 Sudoeste 6 Sudoeste 0 -- -- 56
2018-05-16 22:00:00 15.2 0 Calma 6 Nordeste 0 -- -- 49
2018-05-16 21:00:00 18 4 Norte 15 Nordeste 0 -- -- 39
2018-05-16 20:00:00 19.9 8 Nordeste 21 Nordeste 0 -- -- 36
2018-05-16 19:00:00 21.4 12 Nordeste 23 Este 0 -- -- 33
2018-05-16 18:00:00 22.8 14 Este 29 Sudeste 0 -- -- 31
2018-05-16 17:00:00 23.7 15 Este 32 Nordeste 0 -- -- 33
2018-05-16 16:00:00 24.2 15 Este 26 Sudeste 0 -- -- 32
2018-05-16 15:00:00 24.2 6 Este 29 Sudeste 0 -- -- 32
2018-05-16 14:00:00 23.7 12 Este 25 Este 0 -- -- 33
2018-05-16 13:00:00 23.3 12 Este 23 Este 0 -- -- 30
2018-05-16 12:00:00 22.1 9 Sudeste 19 Sudeste 0 -- -- 38
2018-05-16 11:00:00 21 8 Este 17 Nordeste 0 -- -- 41
2018-05-16 10:00:00 19.2 4 Nordeste 12 Nordeste 0 -- -- 46
2018-05-16 09:00:00 16.8 2 Este 8 Sudoeste 0 -- -- 50
2018-05-16 08:00:00 11.7 5 Sudoeste 11 Sudoeste 0 -- -- 64
2018-05-16 07:00:00 8.9 0 Calma 9 Sudoeste 0 -- -- 71
2018-05-16 06:00:00 9.2 4 Sudoeste 8 Sudoeste 0 -- -- 69
2018-05-16 05:00:00 9.5 4 Oeste 7 Oeste 0 -- -- 68
2018-05-16 04:00:00 9.9 2 Sudoeste 8 Sudoeste 0 -- -- 67
2018-05-16 03:00:00 10.8 4 Sudoeste 8 Oeste 0 -- -- 65
2018-05-16 02:00:00 11.7 4 Oeste 10 Sudoeste 0 -- -- 62
2018-05-16 01:00:00 12.7 6 Sudoeste 10 Sudoeste 0 -- -- 59
2018-05-16 00:00:00 13.5 6 Oeste 12 Oeste 0 -- -- 58
2018-05-15 23:00:00 14.1 6 Oeste 10 Oeste 0 -- -- 57
2018-05-15 22:00:00 16 0 Calma 7 Norte 0 -- -- 52
2018-05-15 21:00:00 18.1 5 Nordeste 14 Este 0 -- -- 48
2018-05-15 20:00:00 20.6 10 Nordeste 18 Este 0 -- -- 45
2018-05-15 19:00:00 22.6 9 Este 21 Este 0 -- -- 41
2018-05-15 18:00:00 23.2 11 Este 27 Este 0 -- -- 40
2018-05-15 17:00:00 23.8 13 Nordeste 24 Nordeste 0 -- -- 38
2018-05-15 16:00:00 24.6 8 Este 22 Este 0 -- -- 34
2018-05-15 15:00:00 23.3 12 Este 23 Nordeste 0 -- -- 37
2018-05-15 14:00:00 23 8 Este 19 Sudeste 0 -- -- 37
2018-05-15 13:00:00 21.5 6 Este 20 Sudeste 0 -- -- 41
2018-05-15 12:00:00 19.6 7 Nordeste 17 Nordeste 0 -- -- 46
2018-05-15 11:00:00 18.4 6 Nordeste 17 Nordeste 0 -- -- 49
2018-05-15 10:00:00 16.4 5 Nordeste 8 Nordeste 0 -- -- 50
2018-05-15 09:00:00 13.9 5 Nordeste 8 Nordeste 0 -- -- 58
2018-05-15 08:00:00 11.3 0 Calma 8 Norte 0 -- -- 71
2018-05-15 07:00:00 8.9 3 Noroeste 7 Noroeste 0 -- -- 78
2018-05-15 06:00:00 9.2 2 Oeste 10 Oeste 0 -- -- 76
2018-05-15 05:00:00 9.8 3 Sudoeste 10 Sudoeste 0 -- -- 76
2018-05-15 04:00:00 10.3 5 Sudoeste 12 Sudoeste 0 -- -- 76
2018-05-15 03:00:00 11.9 4 Oeste 10 Oeste 0 -- -- 71
2018-05-15 02:00:00 12.8 4 Noroeste 9 Sudoeste 0 -- -- 64
2018-05-15 01:00:00 13.4 0 Calma 10 Oeste 0 -- -- 70
2018-05-15 00:00:00 14.7 3 Noroeste 8 Norte 0 -- -- 68
2018-05-14 23:00:00 15.1 0 Calma 12 Oeste 0 -- -- 57
2018-05-14 22:00:00 15.5 3 Sur 9 Oeste 0 -- -- 54
2018-05-14 21:00:00 18.2 0 Calma 5 Norte 0 -- -- 45
2018-05-14 20:00:00 20.3 0 Calma 14 Nordeste 0 -- -- 40
2018-05-14 19:00:00 21.5 9 Nordeste 19 Este 0 -- -- 35
2018-05-14 18:00:00 24.3 7 Sudoeste 23 Sudoeste 0 -- -- 26
2018-05-14 17:00:00 23.2 6 Noroeste 24 Norte 0 -- -- 27
2018-05-14 16:00:00 23.1 7 Noroeste 24 Norte 0 -- -- 27
2018-05-14 15:00:00 23.8 8 Oeste 23 Noroeste 0 -- -- 27
2018-05-14 14:00:00 22.5 6 Oeste 31 Sudoeste 0 -- -- 30
2018-05-14 13:00:00 21 7 Noroeste 28 Norte 0 -- -- 33
2018-05-14 12:00:00 19.1 8 Noroeste 22 Norte 0 -- -- 36
2018-05-14 11:00:00 19.4 8 Sur 23 Norte 0 -- -- 34
2018-05-14 10:00:00 14.3 2 Nordeste 5 Nordeste 0 -- -- 48
2018-05-14 09:00:00 11.8 0 Calma 7 Norte 0 -- -- 52
2018-05-14 08:00:00 9.7 3 Nordeste 6 Nordeste 0 -- -- 61
2018-05-14 07:00:00 8.9 0 Calma 6 Oeste 0 -- -- 58
2018-05-14 06:00:00 10.2 3 Oeste 7 Oeste 0 -- -- 53
2018-05-14 05:00:00 11.6 6 Norte 14 Noroeste 0 -- -- 43
2018-05-14 04:00:00 12.3 5 Sudoeste 10 Sudoeste 0 -- -- 42
2018-05-14 03:00:00 12.3 0 Calma 10 Oeste 0 -- -- 43
2018-05-14 02:00:00 13.7 0 Calma 10 Noroeste 0 -- -- 39
2018-05-14 01:00:00 15.2 3 Noroeste 10 Sudoeste 0 -- -- 33
2018-05-11 20:00:00 -- -- -- -- -- -- -- -- --
2018-05-11 19:00:00 -- -- -- -- -- -- -- -- --
2018-05-11 18:00:00 -- -- -- -- -- -- -- -- --
2018-05-11 17:00:00 -- -- -- -- -- -- -- -- --
2018-05-11 16:00:00 26.9 5 Este 15 Este 0 -- -- 46
2018-05-11 15:00:00 26.2 5 Este 17 Sudeste 0 -- -- 46
2018-05-11 14:00:00 25.1 6 Este 25 Nordeste 0 -- -- 50
2018-05-11 13:00:00 23.1 6 Nordeste 15 Este 0 -- -- 56
2018-05-11 12:00:00 21.1 4 Nordeste 12 Nordeste 0 -- -- 63
2018-05-11 11:00:00 19.2 6 Nordeste 10 Nordeste 0 -- -- 70
2018-05-11 10:00:00 17.2 4 Nordeste 7 Nordeste 0 -- -- 73
2018-05-11 09:00:00 15 3 Sudoeste 8 Sudoeste 0 -- -- 81
2018-05-11 08:00:00 11.3 4 Sudoeste 9 Sudoeste 0 -- -- 93
2018-05-11 07:00:00 10.1 3 Sudoeste 6 Sudoeste 0 -- -- 93
2018-05-11 06:00:00 10.2 3 Sudoeste 5 Sudoeste 0 -- -- 92
2018-05-11 05:00:00 10.7 0 Calma 7 Sudoeste 0 -- -- 91
2018-05-11 04:00:00 11.1 5 Oeste 12 Oeste 0 -- -- 91
2018-05-11 03:00:00 11.4 5 Sudoeste 9 Oeste 0 -- -- 89
2018-05-11 02:00:00 11.9 4 Oeste 12 Oeste 0 -- -- 88
2018-05-11 01:00:00 12.4 6 Sudoeste 9 Oeste 0 -- -- 89
2018-05-11 00:00:00 13.3 3 Oeste 9 Sudoeste 0 -- -- 87
2018-05-10 23:00:00 14.4 5 Oeste 10 Sudoeste 0 -- -- 86
2018-05-10 22:00:00 15.6 2 Sudoeste 13 Sudeste 0 -- -- 85
2018-05-10 21:00:00 17.1 5 Sudeste 12 Sudeste 1 -- -- 71
2018-05-10 20:00:00 19 5 Este 13 Nordeste 0 -- -- 59
2018-05-10 19:00:00 20 10 Nordeste 25 Nordeste 0 -- -- 55
2018-05-10 18:00:00 22.8 14 Nordeste 23 Nordeste 0 -- -- 47
2018-05-10 17:00:00 23.2 14 Nordeste 26 Este 0 -- -- 45
2018-05-10 16:00:00 23.6 12 Este 26 Este 0 -- -- 49
2018-05-10 15:00:00 23.5 9 Sudeste 22 Nordeste 0 -- -- 52
2018-05-10 14:00:00 22.7 8 Nordeste 19 Sudeste 0 -- -- 59
2018-05-10 13:00:00 22.2 6 Este 17 Este 0 -- -- 55
2018-05-10 12:00:00 19.8 6 Nordeste 12 Este 0 -- -- 72
2018-05-10 11:00:00 17.8 4 Este 8 Nordeste 0 -- -- 85
2018-05-10 10:00:00 16.5 0 Calma 3 Nordeste 0 -- -- 93
2018-05-10 09:00:00 16.3 0 Calma 7 Sudoeste 0 -- -- 94
2018-05-10 08:00:00 16 2 Sudoeste 9 Oeste 0 -- -- 94
2018-05-10 07:00:00 15.5 2 Nordeste 8 Sudoeste 0 -- -- 94
2018-05-10 06:00:00 15.7 0 Calma 4 Oeste 0 -- -- 94
2018-05-10 05:00:00 16.1 4 Nordeste 5 Nordeste 0 -- -- 94
2018-05-10 04:00:00 16.3 3 Oeste 9 Sudoeste 0.6 -- -- 94
2018-05-10 03:00:00 16.2 2 Sur 5 Sudoeste 1 -- -- 92
2018-05-10 02:00:00 15.9 0 Calma 4 Norte 0 -- -- 91
2018-05-10 01:00:00 16 0 Calma 4 Noroeste 0 -- -- 89
2018-05-10 00:00:00 17.2 0 Calma 5 Noroeste 0 -- -- 87
2018-05-09 23:00:00 18.1 2 Sudoeste 3 Sudoeste 0 -- -- 83
2018-05-09 22:00:00 19 0 Calma 10 Nordeste 0 -- -- 80
2018-05-09 21:00:00 19.9 6 Nordeste 21 Sudeste 0 -- -- 76
2018-05-09 20:00:00 21.8 7 Este 16 Nordeste 0 -- -- 67
2018-05-09 19:00:00 23.2 10 Este 21 Nordeste 0 -- -- 57
2018-05-09 18:00:00 23.4 7 Nordeste 14 Nordeste 0 -- -- 61
2018-05-09 17:00:00 21.7 3 Norte 29 Norte 0.4 -- -- 63
2018-05-09 16:00:00 22.6 12 Nordeste 34 Norte 0 -- -- 63
2018-05-09 15:00:00 27.4 6 Sudoeste 17 Oeste 0 -- -- 35
2018-05-09 14:00:00 26.2 3 Nordeste 14 Sudeste 0 -- -- 44
2018-05-09 13:00:00 25.2 6 Este 15 Nordeste 0 -- -- 46
2018-05-09 12:00:00 25.1 5 Este 11 Nordeste 0 -- -- 46
2018-05-09 11:00:00 23 5 Sudeste 9 Sudeste 0 -- -- 52
2018-05-09 10:00:00 20.9 0 Calma 5 Sudeste 0 -- -- 62
2018-05-09 09:00:00 17.6 3 Este 5 Este 0 -- -- 78
2018-05-09 08:00:00 13.8 0 Calma 4 Oeste 0 -- -- 92
2018-05-09 07:00:00 12.2 0 Calma 9 Oeste 0 -- -- 92
2018-05-09 06:00:00 12.5 2 Noroeste 7 Oeste 0 -- -- 93
2018-05-09 05:00:00 12.4 0 Calma 4 Sudeste 0 -- -- 92
2018-05-09 04:00:00 13 3 Nordeste 5 Norte 0 -- -- 92
2018-05-09 03:00:00 13.7 2 Sudoeste 8 Oeste 0 -- -- 90
2018-05-09 02:00:00 13.6 4 Sudoeste 10 Oeste 0 -- -- 88
2018-05-09 01:00:00 14.3 3 Noroeste 11 Sudoeste 0 -- -- 89
2018-05-09 00:00:00 15 8 Oeste 10 Oeste 0 -- -- 86
2018-05-08 23:00:00 16.2 3 Sudoeste 10 Oeste 0 -- -- 86
2018-05-08 22:00:00 17.4 4 Sudoeste 7 Sudoeste 0 -- -- 85
2018-05-08 21:00:00 18.6 3 Oeste 9 Sudoeste 0 -- -- 82
2018-05-08 20:00:00 19.5 3 Sudoeste 5 Oeste 0 -- -- 78
2018-05-08 19:00:00 19.1 2 Sur 11 Sur 0 -- -- 77
2018-05-08 18:00:00 17 7 Sudoeste 12 Sudeste 1.8 -- -- 88
2018-05-08 17:00:00 17.2 4 Oeste 33 Norte 2.4 -- -- 83
2018-05-08 16:00:00 22.8 9 Nordeste 20 Nordeste 0 -- -- 54
2018-05-08 15:00:00 20.4 2 Este 25 Nordeste 0.4 -- -- 69
2018-05-08 14:00:00 23.6 16 Nordeste 31 Norte 0 -- -- 48
2018-05-08 13:00:00 25 10 Norte 25 Norte 0 -- -- 43
2018-05-08 12:00:00 25.1 6 Sudoeste 16 Norte 0 -- -- 42
2018-05-08 11:00:00 23.1 6 Norte 17 Norte 0 -- -- 48
2018-05-08 10:00:00 19.2 3 Este 5 Este 0 -- -- 67
2018-05-08 09:00:00 16.5 0 Calma 2 Nordeste 0 -- -- 75
2018-05-08 08:00:00 14.4 0 Calma 5 Norte 0 -- -- 81
2018-05-08 07:00:00 13.5 0 Calma 5 Oeste 0 -- -- 82
2018-05-08 06:00:00 13.8 2 Oeste 8 Sudoeste 0 -- -- 82
2018-05-08 05:00:00 13.6 0 Calma 5 Oeste 0 -- -- 79
2018-05-08 04:00:00 13.7 0 Calma 6 Sudoeste 0 -- -- 76
2018-05-08 03:00:00 15 2 Sudoeste 13 Sudoeste 0 -- -- 71
2018-05-08 02:00:00 15.2 2 Sudoeste 7 Oeste 0 -- -- 70
2018-05-08 01:00:00 15.1 5 Sudoeste 9 Sudoeste 0 -- -- 69
2018-05-08 00:00:00 15 4 Oeste 9 Oeste 0 -- -- 69
2018-05-07 23:00:00 15.4 3 Sudoeste 9 Oeste 0 -- -- 70
2018-05-07 22:00:00 16.9 0 Calma 4 Norte 0 -- -- 66
2018-05-07 21:00:00 18.8 3 Nordeste 12 Nordeste 0 -- -- 58
2018-05-07 20:00:00 20.5 10 Nordeste 22 Este 0 -- -- 52
2018-05-07 19:00:00 22.8 13 Este 24 Este 0 -- -- 45
2018-05-07 18:00:00 23.8 17 Nordeste 26 Nordeste 0 -- -- 42
2018-05-07 17:00:00 24.9 13 Sudeste 22 Este 0 -- -- 39
2018-05-07 16:00:00 25.1 10 Este 23 Este 0 -- -- 41
2018-05-07 15:00:00 24.8 9 Nordeste 23 Sudeste 0 -- -- 39
2018-05-07 14:00:00 24 10 Nordeste 20 Nordeste 0 -- -- 40
2018-05-07 13:00:00 23.9 9 Sur 23 Sudeste 0 -- -- 43
2018-05-07 12:00:00 23 8 Sudeste 18 Este 0 -- -- 44
2018-05-07 11:00:00 21.8 4 Este 9 Nordeste 0 -- -- 48
2018-05-07 10:00:00 19.9 5 Este 8 Este 0 -- -- 56
2018-05-07 09:00:00 16.8 3 Sudeste 8 Sur 0 -- -- 68
2018-05-07 08:00:00 12 3 Sudoeste 8 Sudoeste 0 -- -- 85
2018-05-07 07:00:00 10.3 4 Noroeste 6 Sudoeste 0 -- -- 90
2018-05-07 06:00:00 10.4 3 Sudoeste 6 Sudoeste 0 -- -- 87
2018-05-07 05:00:00 10.8 0 Calma 10 Sudoeste 0 -- -- 86
2018-05-07 04:00:00 11.9 5 Oeste 9 Sudoeste 0 -- -- 83
2018-05-07 03:00:00 12.4 5 Oeste 9 Oeste 0 -- -- 81
2018-05-07 02:00:00 13.2 5 Oeste 10 Oeste 0 -- -- 79
2018-05-07 01:00:00 13.9 5 Oeste 8 Oeste 0 -- -- 77
2018-05-07 00:00:00 15.2 3 Oeste 5 Noroeste 0 -- -- 73
2018-05-06 23:00:00 16.8 0 Calma 7 Este 0 -- -- 68
2018-05-06 22:00:00 17.6 4 Este 10 Este 0 -- -- 63
2018-05-06 21:00:00 18.3 6 Nordeste 18 Este 0 -- -- 59
2018-05-06 20:00:00 19.4 13 Este 26 Este 0 -- -- 54
2018-05-06 19:00:00 21.9 16 Nordeste 31 Nordeste 0 -- -- 46
2018-05-06 18:00:00 22.4 13 Nordeste 29 Este 0 -- -- 42
2018-05-06 17:00:00 24.1 14 Este 29 Este 0 -- -- 39
2018-05-06 16:00:00 24.5 14 Este 28 Este 0 -- -- 37
2018-05-06 15:00:00 23.9 13 Este 35 Nordeste 0 -- -- 39
2018-05-06 14:00:00 24 12 Este 28 Este 0 -- -- 43
2018-05-06 13:00:00 22.6 12 Este 23 Nordeste 0 -- -- 46
2018-05-06 12:00:00 22 10 Este 23 Este 0 -- -- 47
2018-05-06 11:00:00 21.4 6 Nordeste 13 Nordeste 0 -- -- 49
2018-05-06 10:00:00 19.6 3 Sudeste 6 Sudeste 0 -- -- 58
2018-05-06 09:00:00 16.8 2 Este 5 Sur 0 -- -- 66
2018-05-06 08:00:00 11.8 4 Sudoeste 6 Sudoeste 0 -- -- 84
2018-05-06 07:00:00 10.4 3 Sudoeste 6 Sudoeste 0 -- -- 86
2018-05-06 06:00:00 10.6 4 Sudoeste 5 Sudoeste 0 -- -- 84
2018-05-06 05:00:00 10.7 3 Sudoeste 6 Sudoeste 0 -- -- 82
2018-05-06 04:00:00 11 0 Calma 6 Oeste 0 -- -- 78
2018-05-06 03:00:00 11.7 3 Oeste 9 Sudoeste 0 -- -- 73
2018-05-06 02:00:00 12.3 5 Oeste 8 Oeste 0 -- -- 71
2018-05-06 01:00:00 13.1 5 Sudoeste 7 Sudoeste 0 -- -- 72
2018-05-06 00:00:00 13.9 5 Sudoeste 8 Oeste 0 -- -- 71
2018-05-05 23:00:00 14.9 4 Oeste 9 Sudoeste 0 -- -- 68
2018-05-05 22:00:00 16.1 3 Sudoeste 8 Oeste 0 -- -- 61
2018-05-05 21:00:00 17.2 4 Este 17 Este 0 -- -- 52
2018-05-05 20:00:00 18.1 10 Este 26 Nordeste 0 -- -- 48
2018-05-05 19:00:00 19.2 13 Nordeste 28 Nordeste 0 -- -- 47
2018-05-05 18:00:00 21.2 18 Nordeste 34 Nordeste 0 -- -- 43
2018-05-05 17:00:00 22.8 19 Nordeste 32 Nordeste 0 -- -- 41
2018-05-05 16:00:00 24.3 15 Este 29 Nordeste 0 -- -- 37
2018-05-05 15:00:00 25.6 12 Este 31 Este 0 -- -- 35
2018-05-05 14:00:00 24.1 7 Sudeste 20 Sudeste 0 -- -- 36
2018-05-05 13:00:00 23.7 5 Nordeste 15 Este 0 -- -- 37
2018-05-05 12:00:00 23.3 5 Sudoeste 12 Este 0 -- -- 39
2018-05-05 11:00:00 21.4 4 Sudeste 10 Este 0 -- -- 46
2018-05-05 10:00:00 16.7 2 Este 4 Este 0 -- -- 62
2018-05-05 09:00:00 14 0 Calma 6 Oeste 0 -- -- 74
2018-05-05 08:00:00 12 0 Calma 3 Oeste 0 -- -- 80
2018-05-05 07:00:00 11.8 0 Calma 5 Noroeste 0 -- -- 78
2018-05-05 06:00:00 11.8 2 Sudoeste 6 Noroeste 0 -- -- 78
2018-05-05 05:00:00 13.1 0 Calma 6 Oeste 0 -- -- 73
2018-05-05 04:00:00 13.2 2 Oeste 5 Oeste 0 -- -- 76
2018-05-05 03:00:00 13.4 0 Calma 6 Sudoeste 0 -- -- 77
2018-05-05 02:00:00 13.6 2 Sudoeste 7 Oeste 0 -- -- 73
2018-05-05 01:00:00 13.8 4 Oeste 6 Oeste 0 -- -- 76
2018-05-05 00:00:00 14.1 4 Oeste 6 Oeste 0 -- -- 73
2018-05-04 23:00:00 14.6 2 Sudoeste 10 Sudoeste 0 -- -- 70
2018-05-04 22:00:00 14.7 5 Sudoeste 9 Sudoeste 0 -- -- 66
2018-05-04 21:00:00 15.6 4 Oeste 7 Sudoeste 0 -- -- 69
2018-05-04 20:00:00 16.6 4 Nordeste 16 Este 0 -- -- 53
2018-05-04 19:00:00 18.6 9 Nordeste 22 Nordeste 0 -- -- 43
2018-05-04 18:00:00 20.6 10 Este 20 Este 0 -- -- 38
2018-05-04 17:00:00 21.2 13 Este 23 Este 0 -- -- 37
2018-05-04 16:00:00 22.6 8 Este 21 Este 0 -- -- 36
2018-05-04 15:00:00 21.3 10 Sudeste 22 Sudeste 0 -- -- 36
2018-05-04 14:00:00 21.7 8 Este 18 Este 0 -- -- 36
2018-05-04 13:00:00 21.4 7 Sudeste 21 Este 0 -- -- 36
2018-05-04 12:00:00 19.8 8 Nordeste 15 Nordeste 0 -- -- 38
2018-05-04 11:00:00 19 2 Nordeste 8 Sudeste 0 -- -- 42
2018-05-04 10:00:00 16.4 3 Sudeste 8 Nordeste 0 -- -- 46
2018-05-04 09:00:00 14 3 Nordeste 12 Sudoeste 0 -- -- 55
2018-05-04 08:00:00 10.4 7 Sudoeste 14 Sudoeste 0 -- -- 63
2018-05-04 07:00:00 8.9 5 Oeste 10 Oeste 0 -- -- 72
2018-05-04 06:00:00 8.8 4 Oeste 8 Oeste 0 -- -- 75
2018-05-04 05:00:00 8.7 4 Oeste 8 Oeste 0 -- -- 76
2018-05-04 04:00:00 9.6 3 Sudoeste 12 Sudoeste 0 -- -- 73
2018-05-04 03:00:00 10.4 7 Sudoeste 11 Sudoeste 0 -- -- 71
2018-05-04 02:00:00 11.7 2 Sur 12 Oeste 0 -- -- 69
2018-05-04 01:00:00 12.8 3 Oeste 9 Sudoeste 0 -- -- 69
2018-05-04 00:00:00 13.5 0 Calma 6 Sudoeste 0 -- -- 68
2018-05-03 23:00:00 14.4 3 Sudoeste 4 Nordeste 0 -- -- 68
2018-05-03 22:00:00 15.6 0 Calma 5 Sudoeste 0 -- -- 65
2018-05-03 21:00:00 17 0 Calma 11 Nordeste 0 -- -- 61
2018-05-03 20:00:00 18.5 6 Nordeste 13 Nordeste 0 -- -- 55
2018-05-03 19:00:00 19.4 11 Nordeste 20 Nordeste 0 -- -- 49
2018-05-03 18:00:00 21.5 12 Este 28 Nordeste 0 -- -- 43
2018-05-03 17:00:00 23.4 18 Nordeste 31 Nordeste 0 -- -- 37
2018-05-03 16:00:00 24.2 6 Noroeste 28 Norte 0 -- -- 29
2018-05-03 15:00:00 23.1 6 Oeste 29 Oeste 0 -- -- 30
2018-05-03 14:00:00 23.4 10 Noroeste 34 Noroeste 0 -- -- 31
2018-05-03 13:00:00 22.4 9 Noroeste 31 Sudoeste 0 -- -- 33
2018-05-03 12:00:00 21.4 9 Noroeste 27 Oeste 0 -- -- 38
2018-05-03 11:00:00 19.2 7 Oeste 21 Oeste 0 -- -- 43
2018-05-03 10:00:00 17.7 7 Noroeste 25 Sudoeste 0 -- -- 46
2018-05-03 09:00:00 15.9 5 Oeste 21 Sudoeste 0 -- -- 51
2018-05-03 08:00:00 13.1 3 Este 8 Norte 0 -- -- 57
2018-05-03 07:00:00 12.2 3 Nordeste 12 Sur 0 -- -- 56
2018-05-03 06:00:00 12.6 3 Sur 14 Sudoeste 0 -- -- 52
2018-05-03 05:00:00 13.5 3 Sur 15 Sudoeste 0 -- -- 46
2018-05-03 04:00:00 14.8 3 Sudoeste 16 Sudoeste 0 -- -- 41
2018-05-03 03:00:00 15.2 3 Oeste 15 Oeste 0 -- -- 38
2018-05-03 02:00:00 15.5 3 Oeste 18 Oeste 0 -- -- 37
2018-05-03 01:00:00 16.2 4 Oeste 21 Sudoeste 0 -- -- 37
2018-05-03 00:00:00 16.8 9 Sudoeste 20 Sudoeste 0 -- -- 36
2018-05-02 23:00:00 17 6 Sudoeste 18 Sudoeste 0 -- -- 35
2018-05-02 22:00:00 17.5 6 Oeste 16 Sudoeste 0 -- -- 33
2018-05-02 21:00:00 18.9 9 Sudoeste 19 Oeste 0 -- -- 32
2018-05-02 20:00:00 20.5 7 Sudoeste 27 Sudoeste 0 -- -- 29
2018-05-02 19:00:00 21.9 9 Noroeste 26 Oeste 0 -- -- 27
2018-05-02 18:00:00 22.3 11 Oeste 32 Sudoeste 0 -- -- 26
2018-05-02 17:00:00 22 14 Noroeste 35 Norte 0 -- -- 27
2018-05-02 16:00:00 22.5 13 Oeste 41 Sudoeste 0 -- -- 26
2018-05-02 15:00:00 20.8 12 Noroeste 37 Sudoeste 0 -- -- 29
2018-05-02 14:00:00 21.3 13 Sudoeste 36 Sudoeste 0 -- -- 28
2018-05-02 13:00:00 20.2 11 Oeste 30 Sudoeste 0 -- -- 30
2018-05-02 12:00:00 18.8 9 Noroeste 49 Noroeste 0 -- -- 35
2018-05-02 11:00:00 17.2 16 Sudoeste 28 Sudoeste 0 -- -- 37
2018-05-02 10:00:00 15.4 15 Sudoeste 27 Sudoeste 0 -- -- 43
2018-05-02 09:00:00 13.3 8 Sudeste 19 Sudoeste 0 -- -- 53
2018-05-02 08:00:00 8.4 5 Nordeste 10 Nordeste 0 -- -- 73
2018-05-02 07:00:00 5.1 3 Nordeste 7 Este 0 -- -- 87
2018-05-02 06:00:00 5.1 5 Nordeste 8 Nordeste 0 -- -- 90
2018-05-02 05:00:00 5.6 0 Calma 9 Oeste 0 -- -- 85
2018-05-02 04:00:00 5.9 4 Sudoeste 12 Sudoeste 0 -- -- 84
2018-05-02 03:00:00 6.2 3 Sudoeste 10 Sudoeste 0 -- -- 82
2018-05-02 02:00:00 6.8 7 Sudoeste 10 Oeste 0 -- -- 79
2018-05-02 01:00:00 7.7 3 Oeste 8 Oeste 0 -- -- 76
2018-05-02 00:00:00 8.3 5 Oeste 9 Oeste 0 -- -- 73
2018-05-01 23:00:00 9.4 3 Oeste 10 Sudoeste 0 -- -- 69
2018-05-01 22:00:00 10.6 0 Calma 9 Oeste 0 -- -- 67
2018-05-01 21:00:00 12.3 3 Norte 12 Nordeste 0 -- -- 58
2018-05-01 20:00:00 13.7 8 Nordeste 19 Nordeste 0 -- -- 53
2018-05-01 19:00:00 16.2 13 Nordeste 22 Nordeste 0 -- -- 45
2018-05-01 18:00:00 17.6 10 Nordeste 27 Este 0 -- -- 39
2018-05-01 17:00:00 18.2 8 Este 16 Nordeste 0 -- -- 33
2018-05-01 16:00:00 18.3 4 Nordeste 21 Este 0 -- -- 30
2018-05-01 15:00:00 18 5 Este 21 Este 0 -- -- 32
2018-05-01 14:00:00 18.2 8 Sudoeste 16 Sur 0 -- -- 33
2018-05-01 13:00:00 16.5 7 Nordeste 22 Este 0 -- -- 36
2018-05-01 12:00:00 16.4 7 Nordeste 18 Este 0 -- -- 38
2018-05-01 11:00:00 15 6 Norte 13 Nordeste 0 -- -- 42
2018-05-01 10:00:00 14 3 Sudeste 15 Sur 0 -- -- 45
2018-05-01 09:00:00 11.6 9 Sudoeste 15 Sudoeste 0 -- -- 53
2018-05-01 08:00:00 8.7 0 Calma 13 Sudoeste 0 -- -- 63
2018-05-01 07:00:00 7.5 5 Sudoeste 21 Oeste 0 -- -- 65
2018-05-01 06:00:00 8.3 7 Oeste 20 Oeste 0 -- -- 59
2018-05-01 05:00:00 8.4 3 Norte 10 Oeste 0 -- -- 59
2018-05-01 04:00:00 8.5 4 Sudeste 22 Oeste 0 -- -- 61
2018-05-01 03:00:00 8 3 Sudoeste 11 Sudoeste 0 -- -- 65
2018-05-01 02:00:00 9.5 4 Sudoeste 21 Sudoeste 0 -- -- 61
2018-05-01 01:00:00 10.9 9 Sudoeste 15 Sudoeste 0 -- -- 57
2018-05-01 00:00:00 11.9 4 Sudoeste 27 Sudoeste 0 -- -- 53
2018-04-30 23:00:00 12.7 10 Sudoeste 25 Oeste 0 -- -- 47
2018-04-30 22:00:00 13.8 8 Sudoeste 26 Oeste 0 -- -- 45
2018-04-30 21:00:00 14.8 9 Sudoeste 20 Sudoeste 0 -- -- 41
2018-04-30 20:00:00 16.5 6 Sudoeste 16 Sudoeste 0 -- -- 36
2018-04-30 19:00:00 17.3 10 Sudoeste 22 Sudoeste 0 -- -- 37
2018-04-30 18:00:00 16.1 13 Sudoeste 26 Sudoeste 0 -- -- 37
2018-04-30 17:00:00 17.3 9 Sudoeste 32 Sudoeste 0 -- -- 36
2018-04-30 16:00:00 17.5 9 Oeste 33 Norte 0 -- -- 37
2018-04-30 15:00:00 17.3 12 Sudoeste 30 Sudoeste 0 -- -- 38
2018-04-30 14:00:00 16.8 12 Sudoeste 31 Oeste 0 -- -- 41
2018-04-30 13:00:00 17.2 17 Sudoeste 33 Oeste 0 -- -- 40
2018-04-30 12:00:00 15.9 10 Oeste 23 Sudoeste 0 -- -- 45
2018-04-30 11:00:00 15 8 Noroeste 22 Noroeste 0 -- -- 48
2018-04-30 10:00:00 14.8 6 Sudoeste 20 Oeste 0 -- -- 51
2018-04-30 09:00:00 11.4 2 Nordeste 5 Nordeste 0 -- -- 67
2018-04-30 08:00:00 8.2 0 Calma 9 Oeste 0 -- -- 79
2018-04-30 07:00:00 6.7 3 Oeste 7 Noroeste 0 -- -- 84
2018-04-30 06:00:00 7.9 3 Oeste 10 Oeste 0 -- -- 77
2018-04-30 05:00:00 7.8 3 Sudoeste 9 Sudoeste 0 -- -- 76
2018-04-30 04:00:00 8.8 3 Oeste 7 Oeste 0 -- -- 72
2018-04-30 03:00:00 10.1 0 Calma 29 Sudoeste 0 -- -- 66
2018-04-30 02:00:00 11.5 10 Sudoeste 33 Sudoeste 0 -- -- 59
2018-04-30 01:00:00 12.2 10 Sudoeste 37 Sudoeste 0 -- -- 56
2018-04-30 00:00:00 12.5 9 Sudoeste 24 Oeste 0 -- -- 55
2018-04-29 23:00:00 12.7 7 Oeste 21 Sudoeste 0 -- -- 53
2018-04-29 22:00:00 13.1 7 Sudoeste 16 Sudoeste 0 -- -- 51
2018-04-29 21:00:00 14.4 11 Sudoeste 22 Sudoeste 0 -- -- 46
2018-04-29 20:00:00 15.5 11 Sudoeste 37 Sudoeste 0 -- -- 45
2018-04-29 19:00:00 17.2 15 Sudoeste 61 Sudoeste 0 -- -- 40
2018-04-29 18:00:00 17.9 22 Sudoeste 54 Sudoeste 0 -- -- 38
2018-04-29 17:00:00 17.6 31 Sudoeste 69 Sudoeste 0 -- -- 37
2018-04-29 16:00:00 17.5 23 Sudoeste 67 Sudoeste 0 -- -- 41
2018-04-29 15:00:00 17.3 37 Sudoeste 73 Oeste 0 -- -- 40
2018-04-29 14:00:00 16.6 27 Sudoeste 63 Sudoeste 0 -- -- 41
2018-04-29 13:00:00 15.8 31 Sudoeste 58 Sudoeste 0 -- -- 44
2018-04-29 12:00:00 15.4 28 Sudoeste 57 Sudoeste 0 -- -- 48
2018-04-29 11:00:00 14.7 26 Sudoeste 62 Oeste 0 -- -- 51
2018-04-29 10:00:00 13.9 24 Sudoeste 58 Sudoeste 0 -- -- 51
2018-04-29 09:00:00 12.4 16 Sudoeste 42 Sudoeste 0 -- -- 57
2018-04-29 08:00:00 12.1 13 Sudoeste 34 Sudoeste 0 -- -- 58
2018-04-29 07:00:00 11.2 8 Oeste 24 Sudoeste 0 -- -- 63
2018-04-29 06:00:00 11.5 11 Sudoeste 25 Sudoeste 0 -- -- 66
2018-04-29 05:00:00 11.3 5 Sudoeste 17 Oeste 0 -- -- 69
2018-04-29 04:00:00 11.6 3 Sudoeste 16 Oeste 0 -- -- 76
2018-04-29 03:00:00 12.6 2 Nordeste 10 Sudoeste 0 -- -- 93
2018-04-29 02:00:00 13.7 4 Sudoeste 8 Sudoeste 0 -- -- 93
2018-04-29 01:00:00 14.9 0 Calma 6 Nordeste 0 -- -- 94
2018-04-29 00:00:00 15.1 2 Nordeste 5 Nordeste 0 -- -- 96
2018-04-28 23:00:00 15.2 3 Nordeste 9 Este 0 -- -- 95
2018-04-28 22:00:00 15.3 4 Este 8 Este 0.2 -- -- 94
2018-04-28 21:00:00 15.7 4 Oeste 9 Nordeste 0 -- -- 93
2018-04-28 20:00:00 15.9 5 Este 13 Sudoeste 1.6 -- -- 93
2018-04-28 19:00:00 15.1 3 Norte 28 Sudoeste 18.6 -- -- 93
2018-04-28 18:00:00 19.3 11 Nordeste 22 Este 0 -- -- 69
2018-04-28 17:00:00 20.8 14 Nordeste 21 Nordeste 0 -- -- 63
2018-04-28 16:00:00 23.1 13 Este 24 Este 0 -- -- 60
2018-04-28 15:00:00 22.9 12 Nordeste 26 Este 0 -- -- 60
2018-04-28 14:00:00 23.7 11 Sudeste 21 Sudeste 0 -- -- 53
2018-04-28 13:00:00 23.1 8 Este 17 Este 0 -- -- 55
2018-04-28 12:00:00 20.7 6 Nordeste 13 Nordeste 0 -- -- 64
2018-04-28 11:00:00 18.6 6 Nordeste 10 Este 0 -- -- 71
2018-04-28 10:00:00 17.1 4 Este 8 Este 0 -- -- 78
2018-04-28 09:00:00 12.8 2 Sudoeste 6 Sudoeste 0 -- -- 92
2018-04-28 08:00:00 11.2 4 Oeste 8 Oeste 0 -- -- 93
2018-04-28 07:00:00 11 0 Calma 8 Oeste 0 -- -- 92
2018-04-28 06:00:00 11.9 2 Noroeste 6 Oeste 0 -- -- 91
2018-04-28 05:00:00 12.7 2 Oeste 7 Oeste 0 -- -- 91
2018-04-28 04:00:00 13 4 Oeste 10 Sudoeste 0 -- -- 91
2018-04-28 03:00:00 13.5 7 Oeste 9 Oeste 0 -- -- 91
2018-04-28 02:00:00 13.9 0 Calma 5 Norte 0 -- -- 90
2018-04-28 01:00:00 15.1 5 Norte 10 Noroeste 0 -- -- 88
2018-04-28 00:00:00 15.8 0 Calma 9 Norte 0 -- -- 87
2018-04-27 23:00:00 16.5 3 Sudoeste 12 Sudoeste 0.2 -- -- 85
2018-04-27 22:00:00 17.2 4 Noroeste 12 Oeste 0 -- -- 84
2018-04-27 21:00:00 18 5 Sudoeste 25 Oeste 0 -- -- 81
2018-04-27 20:00:00 18.6 13 Oeste 24 Oeste 1.2 -- -- 75
2018-04-27 19:00:00 22.1 6 Sur 26 Sur 0.4 -- -- 56
2018-04-27 18:00:00 23 9 Sur 31 Sudeste 0.8 -- -- 55
2018-04-27 17:00:00 23.8 12 Oeste 31 Sudoeste 2.4 -- -- 58
2018-04-27 16:00:00 30.6 15 Oeste 36 Sudoeste 0 -- -- 29
2018-04-27 15:00:00 30 13 Oeste 40 Sudoeste 0 -- -- 32
2018-04-27 14:00:00 29 10 Oeste 39 Sudoeste 0 -- -- 37
2018-04-27 13:00:00 28.2 9 Sudoeste 27 Sudoeste 0 -- -- 42
2018-04-27 12:00:00 26.2 12 Sudoeste 32 Oeste 0 -- -- 49
2018-04-27 11:00:00 24.4 8 Noroeste 27 Noroeste 0 -- -- 52
2018-04-27 10:00:00 22.8 8 Sudeste 23 Este 0 -- -- 57
2018-04-27 09:00:00 18 7 Norte 13 Norte 0 -- -- 71
2018-04-27 08:00:00 13 3 Nordeste 8 Norte 0 -- -- 82
2018-04-27 07:00:00 11.3 0 Calma 5 Sudoeste 0 -- -- 87
2018-04-27 06:00:00 11.8 0 Calma 7 Noroeste 0 -- -- 85
2018-04-27 05:00:00 12 0 Calma 9 Sudoeste 0 -- -- 84
2018-04-27 04:00:00 11.5 0 Calma 3 Sudoeste 0 -- -- 85
2018-04-27 03:00:00 12.2 0 Calma 3 Sur 0 -- -- 81
2018-04-27 02:00:00 12.6 0 Calma 5 Sudoeste 0 -- -- 80
2018-04-27 01:00:00 13.8 0 Calma 9 Oeste 0 -- -- 75
2018-04-27 00:00:00 15.5 4 Noroeste 11 Oeste 0 -- -- 69
2018-04-26 23:00:00 16.3 6 Oeste 12 Oeste 0 -- -- 66
2018-04-26 22:00:00 17.5 4 Sudoeste 6 Noroeste 0 -- -- 62
2018-04-26 21:00:00 20.1 0 Calma 8 Este 0 -- -- 54
2018-04-26 20:00:00 21.5 5 Este 18 Sudeste 0 -- -- 50
2018-04-26 19:00:00 22.9 11 Este 19 Sudeste 0 -- -- 47
2018-04-26 18:00:00 23 8 Este 18 Este 0 -- -- 49
2018-04-26 17:00:00 22.7 6 Nordeste 23 Este 0 -- -- 52
2018-04-26 16:00:00 22.6 9 Este 27 Este 0 -- -- 54
2018-04-26 15:00:00 21.8 13 Sudeste 27 Este 0 -- -- 57
2018-04-26 14:00:00 21.5 11 Este 25 Este 0 -- -- 58
2018-04-26 13:00:00 21.7 13 Este 23 Este 0 -- -- 57
2018-04-26 12:00:00 20.9 12 Este 22 Sudeste 0 -- -- 57
2018-04-26 11:00:00 20.1 11 Nordeste 23 Nordeste 0 -- -- 57
2018-04-26 10:00:00 19.4 8 Nordeste 15 Nordeste 0 -- -- 56
2018-04-26 09:00:00 15.1 0 Calma 8 Sudoeste 0 -- -- 66
2018-04-26 08:00:00 12.6 6 Sudoeste 10 Oeste 0 -- -- 71
2018-04-26 07:00:00 12.3 0 Calma 13 Sudoeste 0 -- -- 69
2018-04-26 06:00:00 12.4 3 Sudoeste 12 Sudoeste 0 -- -- 69
2018-04-26 05:00:00 12.8 9 Sudoeste 12 Oeste 0 -- -- 67
2018-04-26 04:00:00 12.7 2 Norte 5 Norte 0 -- -- 68
2018-04-26 03:00:00 13.1 4 Sudoeste 6 Sudoeste 0 -- -- 66
2018-04-26 02:00:00 13.5 0 Calma 5 Oeste 0 -- -- 66
2018-04-26 01:00:00 13.7 3 Sudoeste 9 Oeste 0 -- -- 65
2018-04-26 00:00:00 14.8 2 Sudoeste 9 Sudoeste 0 -- -- 64
2018-04-25 23:00:00 16.2 5 Oeste 8 Sudoeste 0 -- -- 61
2018-04-25 22:00:00 16.8 5 Sudoeste 8 Sudoeste 0 -- -- 63
2018-04-25 21:00:00 17.7 2 Norte 10 Sudeste 0 -- -- 60
2018-04-25 20:00:00 18.6 6 Este 21 Este 0 -- -- 62
2018-04-25 19:00:00 20.1 12 Este 23 Nordeste 0 -- -- 43
2018-04-25 18:00:00 20.6 10 Nordeste 24 Este 0 -- -- 42
2018-04-25 17:00:00 21.2 10 Nordeste 20 Este 0 -- -- 42
2018-04-25 16:00:00 21.4 10 Este 22 Nordeste 0 -- -- 45
2018-04-25 15:00:00 21.6 10 Nordeste 25 Nordeste 0 -- -- 46
2018-04-25 14:00:00 21.5 9 Este 20 Nordeste 0 -- -- 47
2018-04-25 13:00:00 21.4 10 Sudeste 28 Sudeste 0 -- -- 46
2018-04-25 12:00:00 21.6 9 Este 17 Sudeste 0 -- -- 43
2018-04-25 11:00:00 19.6 4 Este 9 Este 0 -- -- 47
2018-04-25 10:00:00 16.6 0 Calma 4 Este 0 -- -- 65
2018-04-25 09:00:00 13.8 3 Sudoeste 10 Sudoeste 0 -- -- 67
2018-04-25 08:00:00 12 2 Oeste 8 Sudoeste 0 -- -- 70
2018-04-25 07:00:00 12 6 Sudoeste 12 Oeste 0 -- -- 68
2018-04-25 06:00:00 11.5 5 Sudoeste 13 Sudoeste 0 -- -- 69
2018-04-25 05:00:00 11.3 0 Calma 6 Sudoeste 0 -- -- 70
2018-04-25 04:00:00 11.7 4 Sudoeste 14 Sudoeste 0 -- -- 67
2018-04-25 03:00:00 11.7 2 Sudoeste 10 Sudoeste 0 -- -- 68
2018-04-25 02:00:00 11.7 0 Calma 9 Oeste 0 -- -- 66
2018-04-25 01:00:00 12.4 3 Oeste 13 Sudoeste 0 -- -- 64
2018-04-25 00:00:00 12.6 5 Sudoeste 11 Sudoeste 0 -- -- 65